Strona główna
METAR-TAF:

METAR-TAF

Lotnisko :

Vineyard Haven, Massachusetts, Stany Zjednoczone

Szerokość geograficzna: 41-23-32N, Długość geograficzna: 070-37-00W, wysokość: 20 m

Aktualna obserwacja pogody

Raport powstał 43 minut temu, godzina 14:53 UTC
Wiatr 12 kt od zachód w porywach dochodzący do 19 kt
Temperatura 9°C
Wilgotność 57%
Ciśnienie 1019 hPa
Widzialność: 16.1 km
bezchmurnie

METAR: KMVY 171453Z 27012G19KT 10SM CLR 09/01 A3009 RMK AO2 SLP190 T00890006 51019

czas: 10:36 (15:36 UTC)


TAF: brakujący

Obserwacja i prognoza pogody dla ponad 4000 lotnisk (raport METAR i TAF).

Dostępne stacje oznaczono żółtymi i czerwonymi punktami na mapie.

Najedź kursorem aby zobaczyć nazwę stacji.

Kliknij aby zobaczyć obserwacje i prognozy pogody.

Aby zmienić mapę: kliknij na zielony przycisk z czarnym krzyżykiem, aby powiększyć; na zielony przycisk z myślnikiem, aby pomniejszyć; na zielone strzałki, aby przejść do map sąsiednich.


METAR-TAF: